Accueil
METAR-TAF:

METAR-TAF

Aéroports :

Phitsanulok, Thaïlande

latitude: 16-46-23N, longitude: 100-16-56E, altitude: 47 m

Observation

Le bulletin a été fait il y a 53 minutes, à 04:00 UTC
Vent 2 kt de sud-ouest
Température 33°C
Humidité 59%
Pression 1010 hPa
Visibilité 10 km ou plus
Quelques nuages à une hauteur de 2500 ft

METAR: VTPP 260400Z 22002KT 9999 FEW025 33/24 Q1010 NOSIG

Heure: 11:53 (04:53 UTC)

Prévision

Le bulletin a été fait il y a 5 heures et 53 minutes, à 23:00 UTC
Prévision valable du 26 à 00 UTC au 26 à 24 UTC
Vent 5 kt de ouest
Visibilité 10 km ou plus
Quelques nuages à une hauteur de 3000 ft

TAF: VTPP 252300Z 2600/2624 26005KT 9999 FEW030

Observations et prévisions météorologiques de plus de 4000 aéroports (messages METAR et TAF).

Les stations disponibles sont représentées par des disques jaunes et rouges sur la carte.

Passer la souris dessus pour voir le nom de la station.

Cliquer dessus pour voir les observations et prévisions météorologiques.

Pour changer de carte: cliquez sur les boutons verts avec une croix noire pour zoomer, sur le bouton vert avec un tiret pour effectuer un zoom arrière, ou sur les flèches vertes pour les cartes adjacentes.


METAR-TAF: